Flight Track Log - Related Links

Times and Time Zones

All times are in EDT time to prevent confusion due to time zone crossing. See the AUB1737 flight status page for this flight to view local times or setup timezone preferences in your user account.

Time Position Orientation Groundspeed Altitude Reporting Facility
EDT Latitude Longitude Course Direction KTS MPH feet Rate Location/Type
Tue 06:06:00 AM 41.9335 19.2078 324° Northwest  Level Estimated
Tue 06:07:00 AM 42.0198 19.1215 323° Northwest  Level Estimated
Tue 06:08:00 AM 42.1059 19.0350 323° Northwest  Level Estimated
Tue 06:09:00 AM 42.1920 18.9483 323° Northwest  Level Estimated
Tue 06:10:00 AM 42.2781 18.8613 323° Northwest  Level Estimated
Tue 06:11:00 AM 42.3641 18.7741 323° Northwest  Level Estimated
Tue 06:12:00 AM 42.4500 18.6866 323° Northwest  Level Estimated
Tue 06:13:00 AM 42.5358 18.5989 323° Northwest  Level Estimated
Tue 06:14:00 AM 42.6216 18.5110 323° Northwest  Level Estimated
Tue 06:15:00 AM 42.7073 18.4228 323° Northwest  Level Estimated
Tue 06:16:00 AM 42.7929 18.3344 323° Northwest  Level Estimated
Tue 06:17:00 AM 42.8785 18.2457 323° Northwest  Level Estimated
Tue 06:18:00 AM 42.9640 18.1568 323° Northwest  Level Estimated
Tue 06:19:00 AM 43.0495 18.0676 323° Northwest  Level Estimated
Tue 06:20:00 AM 43.1348 17.9782 323° Northwest  Level Estimated
Tue 06:21:00 AM 43.2201 17.8885 323° Northwest  Level Estimated
Tue 06:22:00 AM 43.3054 17.7986 322° Northwest  Level Estimated
Tue 06:23:00 AM 43.3905 17.7085 322° Northwest  Level Estimated
Tue 06:24:00 AM 43.4756 17.6181 322° Northwest  Level Estimated
Tue 06:25:00 AM 43.5606 17.5274 322° Northwest  Level Estimated
Tue 06:26:00 AM 43.6456 17.4365 322° Northwest  Level Estimated
Tue 06:27:00 AM 43.7304 17.3453 322° Northwest  Level Estimated
Tue 06:28:00 AM 43.8152 17.2538 322° Northwest  Level Estimated
Tue 06:29:00 AM 43.9000 17.1621 322° Northwest  Level Estimated
Tue 06:30:00 AM 43.9846 17.0702 322° Northwest  Level Estimated
Tue 06:31:00 AM 44.0692 16.9779 322° Northwest  Level Estimated
Tue 06:32:00 AM 44.1537 16.8854 322° Northwest  Level Estimated
Tue 06:33:00 AM 44.2381 16.7927 322° Northwest  Level Estimated
Tue 06:34:00 AM 44.3225 16.6997 322° Northwest  Level Estimated
Tue 06:35:00 AM 44.4067 16.6064 322° Northwest  Level Estimated
Tue 06:36:00 AM 44.4910 16.5128 322° Northwest  Level Estimated
Tue 06:37:00 AM 44.5751 16.4190 322° Northwest  Level Estimated
Tue 06:38:00 AM 44.6591 16.3249 321° Northwest  Level Estimated
Tue 06:39:00 AM 44.7431 16.2305 321° Northwest  Level Estimated
Tue 06:40:00 AM 44.8270 16.1359 321° Northwest  Level Estimated
Tue 06:41:00 AM 44.9108 16.0409 321° Northwest  Level Estimated
Tue 06:42:00 AM 44.9945 15.9457 321° Northwest  Level Estimated
Tue 06:43:00 AM 45.0782 15.8502 321° Northwest  Level Estimated
Tue 06:44:00 AM 45.1618 15.7545 321° Northwest  Level Estimated
Tue 06:45:00 AM 45.2453 15.6584 321° Northwest  Level Estimated
Tue 06:46:00 AM 45.3287 15.5621 321° Northwest  Level Estimated
Tue 06:47:00 AM 45.4120 15.4655 321° Northwest  Level Estimated
Tue 06:48:00 AM 45.4952 15.3686 321° Northwest  Level Estimated
Tue 06:49:00 AM 45.5784 15.2714 321° Northwest  Level Estimated
Tue 06:50:00 AM 45.6615 15.1740 321° Northwest  Level Estimated
Tue 06:51:00 AM 45.7445 15.0762 321° Northwest  Level Estimated
Tue 06:52:00 AM 45.8274 14.9781 321° Northwest  Level Estimated
Tue 06:53:00 AM 45.9103 14.8798 320° Northwest  Level Estimated
Tue 06:54:00 AM 45.9930 14.7812 320° Northwest  Level Estimated
Tue 06:55:00 AM 46.0757 14.6822 320° Northwest  Level Estimated
Tue 06:56:00 AM 46.1583 14.5830 320° Northwest  Level Estimated
Tue 06:57:00 AM 46.2407 14.4835 320° Northwest  Level Estimated
Tue 06:58:00 AM 46.3232 14.3836 320° Northwest  Level Estimated
Tue 06:59:00 AM 46.4055 14.2835 320° Northwest  Level Estimated
Tue 07:00:00 AM 46.4877 14.1831 320° Northwest  Level Estimated
Tue 07:01:00 AM 46.5699 14.0823 320° Northwest  Level Estimated
Tue 07:02:00 AM 46.6519 13.9813 320° Northwest  Level Estimated
Tue 07:03:00 AM 46.7339 13.8800 320° Northwest  Level Estimated
Tue 07:04:00 AM 46.8158 13.7783 320° Northwest  Level Estimated
Tue 07:05:00 AM 46.8975 13.6763 320° Northwest  Level Estimated
Tue 07:06:00 AM 46.9793 13.5741 320° Northwest  Level Estimated
Tue 07:07:00 AM 47.0608 13.4715 319° Northwest  Level Estimated
Tue 07:08:00 AM 47.1424 13.3686 319° Northwest  Level Estimated
Tue 07:09:00 AM 47.2238 13.2654 319° Northwest  Level Estimated
Tue 07:10:00 AM 47.3051 13.1618 319° Northwest  Level Estimated
Tue 07:11:00 AM 47.3863 13.0580 319° Northwest  Level Estimated
Tue 07:12:00 AM 47.4675 12.9538 319° Northwest  Level Estimated
Tue 07:13:00 AM 47.5485 12.8493 319° Northwest  Level Estimated
Tue 07:14:00 AM 47.6295 12.7445 319° Northwest  Level Estimated
Tue 07:15:00 AM 47.7103 12.6393 319° Northwest  Level Estimated
Tue 07:16:00 AM 47.7911 12.5338 319° Northwest  Level Estimated
Tue 07:17:00 AM 47.8717 12.4280 319° Northwest  Level Estimated
Tue 07:18:00 AM 47.9523 12.3219 319° Northwest  Level Estimated
Tue 07:19:00 AM 48.0328 12.2155 319° Northwest  Level Estimated
Tue 07:20:00 AM 48.1132 12.1087 318° Northwest  Level Estimated
Tue 07:21:00 AM 48.1934 12.0015 318° Northwest  Level Estimated
Tue 07:22:00 AM 48.2736 11.8941 318° Northwest  Level Estimated
Tue 07:23:00 AM 48.3537 11.7863 318° Northwest  Level Estimated
Tue 07:24:00 AM 48.3538 11.7861 317° Northwest  Level Estimated
Tue 07:25:00 AM 48.3538 11.7861 318° Northwest  Level Estimated
Tue 07:26:00 AM 48.3538 11.7861 318° Northwest  Level Estimated
Tue 07:27:00 AM 48.3538 11.7861 318° Northwest  Level Estimated
Tue 07:28:00 AM 48.3538 11.7861 318° Northwest  Level Estimated
Tue 07:29:00 AM 48.3538 11.7861 318° Northwest  Level Estimated
Tue 07:30:00 AM 48.3538 11.7861 318° Northwest  Level Estimated
Tue 07:31:00 AM 48.3538 11.7861 318° Northwest  Level Estimated
Tue 07:32:00 AM 48.3538 11.7861 318° Northwest  Level Estimated
Tue 07:33:00 AM 48.3538 11.7861 318° Northwest  Level Estimated
Tue 07:34:00 AM 48.3538 11.7861 318° Northwest  Level Estimated
Tue 07:35:00 AM 48.3538 11.7861 318° Northwest  Level Estimated
Tue 07:36:00 AM 48.3538 11.7861 318° Northwest  Level Estimated
Tue 07:37:00 AM 48.3538 11.7861 318° Northwest  Level Estimated
Tue 07:38:00 AM 48.3538 11.7861 318° Northwest  Level Estimated
Tue 07:39:00 AM 48.3538 11.7861 318° Northwest  Level Estimated

Login

Don't have an account? Register now (free) for customized features, flight alerts, and more!